KHLR

Hood AAF Airport

Fort Hood(Killeen), Texas, USA
METAR KHLR 151858Z AUTO 01009KT 10SM CLR 13/M04 A3025 RMK AO2 SLP243 T01261037
Observed Flight Rules
Dec-15 @ 18:58 UTC (36 minutes ago) Visual Flight Rules
Wind Visibility Clouds
10° at 9 knots 10 miles
  • Clear skies
Temperatures Readings
Current 13°C / 55°F
Dewpoint -4°C / 25°F
Humidity 31%
Altimeter 30.25" Hg
Pressure 1024.3 hPa
Elevation 283
METAR KHLR 151858Z AUTO 01009KT 10SM CLR 13/M04 A3025 RMK AO2 SLP243 T01261037
Observed Flight Rules
Dec-15 @ 18:58 UTC
(36 minutes ago)
VFR
Wind Visibility
10° at 9 knots 10 miles
Clouds
  • Clear skies
Temperature Dewpoint
13°C / 55°F -4°C / 25°F
Humidity Altimeter Pressure
31% 30.25" Hg 1024.3 hPa